createdAt,value
2023-05-10T00:00:25.002Z,52.62
2023-05-10T00:02:51.771Z,52.34
2023-05-10T00:05:18.680Z,52.59
2023-05-10T00:07:48.395Z,52.53
2023-05-10T00:10:15.324Z,52.41
2023-05-10T00:12:43.439Z,52.46
2023-05-10T00:15:10.440Z,52.42
2023-05-10T00:17:37.007Z,52.54
2023-05-10T00:20:05.880Z,52.56
2023-05-10T00:22:33.229Z,52.59
2023-05-10T00:25:00.022Z,52.44
2023-05-10T00:27:26.633Z,52.30
2023-05-10T00:29:53.186Z,52.53
2023-05-10T00:32:19.798Z,52.61
2023-05-10T00:34:46.384Z,52.66
2023-05-10T00:37:12.952Z,52.70
2023-05-10T00:39:39.459Z,52.61
2023-05-10T00:42:06.152Z,52.42
2023-05-10T00:44:32.733Z,52.69
2023-05-10T00:47:00.619Z,52.62
2023-05-10T00:49:27.273Z,52.68
2023-05-10T00:51:54.130Z,52.46
2023-05-10T00:54:20.958Z,52.49
2023-05-10T00:56:49.934Z,52.61
2023-05-10T00:59:18.146Z,52.55
2023-05-10T01:01:48.636Z,52.63
2023-05-10T01:04:16.202Z,52.68
2023-05-10T01:06:43.612Z,52.79
2023-05-10T01:09:12.698Z,52.85
2023-05-10T01:11:40.893Z,52.69
2023-05-10T01:14:08.032Z,52.85
2023-05-10T01:16:38.176Z,52.91
2023-05-10T01:19:18.105Z,53.05
2023-05-10T01:22:00.926Z,52.86
2023-05-10T01:24:39.375Z,52.85
2023-05-10T01:27:28.912Z,53.15
2023-05-10T01:30:16.178Z,52.98
2023-05-10T01:32:59.607Z,52.93
2023-05-10T01:35:58.101Z,52.99
2023-05-10T01:38:49.074Z,52.98
2023-05-10T01:41:49.404Z,53.23
2023-05-10T01:44:51.153Z,53.10
2023-05-10T01:47:37.337Z,53.19
2023-05-10T01:50:14.491Z,53.09
2023-05-10T01:52:58.287Z,53.18
2023-05-10T01:56:11.415Z,52.82
2023-05-10T01:58:53.906Z,53.06
2023-05-10T02:01:37.678Z,52.85
2023-05-10T02:04:20.439Z,52.92
2023-05-10T02:07:05.283Z,53.18
2023-05-10T02:09:52.421Z,53.04
2023-05-10T02:12:28.888Z,53.19
2023-05-10T02:15:05.265Z,53.10
2023-05-10T02:23:37.286Z,53.08
2023-05-10T02:26:35.113Z,53.27
2023-05-10T02:29:33.522Z,53.37
2023-05-10T02:32:13.688Z,53.08
2023-05-10T02:34:56.664Z,53.25
2023-05-10T02:37:43.629Z,53.23
2023-05-10T02:40:34.369Z,53.30
2023-05-10T02:43:34.508Z,53.46
2023-05-10T02:46:14.886Z,53.12
2023-05-10T02:49:10.354Z,53.35
2023-05-10T02:51:51.980Z,53.07
2023-05-10T02:54:51.874Z,53.21
2023-05-10T02:57:36.716Z,53.24
2023-05-10T03:00:23.811Z,53.36
2023-05-10T03:03:01.017Z,53.19
2023-05-10T03:08:22.708Z,53.16
2023-05-10T03:11:39.630Z,53.40
2023-05-10T03:14:34.615Z,53.43
2023-05-10T03:17:40.169Z,53.51
2023-05-10T03:20:45.180Z,53.38
2023-05-10T03:23:37.783Z,53.22
2023-05-10T03:35:17.969Z,53.17
2023-05-10T03:40:58.278Z,53.04
2023-05-10T03:44:12.477Z,53.44
2023-05-10T03:46:50.584Z,53.36
2023-05-10T03:49:19.729Z,53.45
2023-05-10T03:53:16.222Z,53.49
2023-05-10T03:58:07.479Z,53.54
2023-05-10T04:01:00.961Z,53.62
2023-05-10T04:03:37.012Z,53.44
2023-05-10T04:06:26.404Z,53.57
2023-05-10T04:09:01.883Z,53.50
2023-05-10T04:14:12.271Z,53.61
2023-05-10T04:19:39.130Z,53.62
2023-05-10T04:22:19.306Z,53.73
2023-05-10T04:24:56.559Z,53.59
2023-05-10T04:27:33.621Z,53.70
2023-05-10T04:30:27.356Z,53.84
2023-05-10T04:33:14.794Z,53.62
2023-05-10T04:35:54.424Z,53.79
2023-05-10T04:39:20.607Z,53.69
2023-05-10T04:41:50.112Z,53.86
2023-05-10T04:44:19.495Z,53.53
2023-05-10T04:46:56.585Z,53.62
2023-05-10T04:49:38.347Z,53.56
2023-05-10T04:52:09.879Z,53.49
2023-05-10T04:54:55.190Z,53.47
2023-05-10T04:57:31.125Z,53.51
2023-05-10T05:00:00.365Z,53.54
2023-05-10T05:02:29.538Z,53.50
2023-05-10T05:05:04.390Z,53.60
2023-05-10T05:10:46.765Z,53.49
2023-05-10T05:16:14.572Z,53.36
2023-05-10T05:18:43.815Z,53.50
2023-05-10T05:21:30.745Z,53.42
2023-05-10T05:24:03.398Z,53.21
2023-05-10T05:26:48.061Z,53.32
2023-05-10T05:29:33.131Z,53.22
2023-05-10T05:32:02.830Z,52.97
2023-05-10T05:37:28.067Z,53.23
2023-05-10T05:40:12.491Z,53.26
2023-05-10T05:42:54.960Z,53.17
2023-05-10T05:45:27.786Z,52.80
2023-05-10T05:48:13.916Z,53.36
2023-05-10T05:50:46.849Z,53.05
2023-05-10T05:53:20.978Z,53.07
2023-05-10T05:56:40.655Z,53.37
2023-05-10T05:59:10.172Z,53.18
2023-05-10T06:01:46.586Z,53.35
2023-05-10T06:04:34.286Z,53.09
2023-05-10T06:10:46.886Z,53.37
2023-05-10T06:13:21.007Z,53.22
2023-05-10T06:15:50.380Z,53.36
2023-05-10T06:18:27.865Z,53.21
2023-05-10T06:23:48.075Z,53.50
2023-05-10T06:29:15.894Z,53.44
2023-05-10T06:31:57.427Z,53.46
2023-05-10T06:40:06.424Z,52.62
2023-05-10T06:42:33.197Z,52.76
2023-05-10T06:44:59.756Z,52.45
2023-05-10T06:47:26.301Z,52.66
2023-05-10T06:49:53.026Z,52.62
2023-05-10T06:52:19.629Z,52.59
2023-05-10T06:54:46.240Z,52.61
2023-05-10T06:57:23.370Z,52.61
2023-05-10T06:59:58.026Z,52.38
2023-05-10T07:02:24.619Z,52.50
2023-05-10T07:04:52.905Z,52.52
2023-05-10T07:07:20.002Z,52.49
2023-05-10T07:09:46.839Z,52.45
2023-05-10T07:12:15.343Z,52.46
2023-05-10T07:14:42.766Z,52.42
2023-05-10T07:17:09.473Z,52.38
2023-05-10T07:19:36.415Z,52.31
2023-05-10T07:22:03.109Z,52.34
2023-05-10T07:24:29.664Z,52.28
2023-05-10T07:26:56.205Z,52.44
2023-05-10T07:29:22.781Z,52.34
2023-05-10T07:31:49.385Z,52.37
2023-05-10T07:34:15.978Z,52.61
2023-05-10T07:36:42.805Z,52.39
2023-05-10T07:39:09.569Z,52.47
2023-05-10T07:41:36.297Z,52.37
2023-05-10T07:44:02.842Z,52.26
2023-05-10T07:46:29.597Z,52.29
2023-05-10T07:48:56.570Z,52.37
2023-05-10T07:51:23.266Z,52.56
2023-05-10T07:53:49.846Z,52.49
2023-05-10T07:56:28.123Z,52.49
2023-05-10T07:58:55.366Z,52.57
2023-05-10T08:01:22.539Z,52.58
2023-05-10T08:03:49.775Z,52.51
2023-05-10T08:06:16.661Z,52.50
2023-05-10T08:08:43.353Z,52.33
2023-05-10T08:11:10.046Z,52.33
2023-05-10T08:13:36.632Z,52.28
2023-05-10T08:16:03.463Z,52.30
2023-05-10T08:18:30.193Z,52.27
2023-05-10T08:20:56.849Z,52.27
2023-05-10T08:23:23.489Z,52.51
2023-05-10T08:25:50.066Z,52.46
2023-05-10T08:28:16.714Z,52.23
2023-05-10T08:30:43.403Z,52.42
2023-05-10T08:33:10.067Z,52.55
2023-05-10T08:35:36.948Z,52.49
2023-05-10T08:38:03.555Z,52.43
2023-05-10T08:40:30.156Z,52.40
2023-05-10T08:43:05.723Z,52.37
2023-05-10T08:45:34.659Z,52.53
2023-05-10T08:48:03.030Z,52.48
2023-05-10T08:50:31.173Z,52.55
2023-05-10T08:53:01.276Z,52.63
2023-05-10T08:55:28.706Z,52.63
2023-05-10T08:57:55.863Z,52.66
2023-05-10T09:00:24.043Z,52.41
2023-05-10T09:02:51.399Z,52.48
2023-05-10T09:05:18.894Z,52.65
2023-05-10T09:07:45.947Z,52.53
2023-05-10T09:10:14.253Z,52.43
2023-05-10T09:12:41.435Z,52.40
2023-05-10T09:15:10.200Z,52.56
2023-05-10T09:17:37.586Z,52.57
2023-05-10T09:20:05.305Z,53.01
2023-05-10T09:22:32.668Z,52.71
2023-05-10T09:25:06.384Z,52.82
2023-05-10T09:27:33.259Z,52.67
2023-05-10T09:29:59.780Z,52.48
2023-05-10T09:32:42.602Z,52.58
2023-05-10T09:35:15.013Z,52.60
2023-05-10T09:37:43.977Z,52.64
2023-05-10T09:40:16.414Z,52.59
2023-05-10T09:42:51.873Z,52.46
2023-05-10T09:45:18.778Z,52.43
2023-05-10T09:47:46.996Z,52.54
2023-05-10T09:50:13.866Z,52.46
2023-05-10T09:52:49.301Z,52.53
2023-05-10T09:55:17.230Z,52.51
2023-05-10T09:57:44.174Z,52.30
2023-05-10T10:00:11.358Z,52.46
2023-05-10T10:02:38.123Z,52.36
2023-05-10T10:05:07.410Z,52.52
2023-05-10T10:07:35.195Z,52.45
2023-05-10T10:10:01.834Z,52.43
2023-05-10T10:12:29.001Z,52.49
2023-05-10T10:14:57.102Z,52.50
2023-05-10T10:17:28.714Z,52.45
2023-05-10T10:19:56.485Z,52.58
2023-05-10T10:22:23.073Z,52.59
2023-05-10T10:24:51.353Z,52.43
2023-05-10T10:27:23.610Z,52.53
2023-05-10T10:30:27.826Z,52.55
2023-05-10T10:33:10.200Z,52.36
2023-05-10T10:35:44.846Z,52.32
2023-05-10T10:38:14.061Z,52.33
2023-05-10T10:40:41.235Z,52.10
2023-05-10T10:43:27.021Z,52.19
2023-05-10T10:46:18.455Z,52.11
2023-05-10T10:48:50.811Z,52.04
2023-05-10T10:51:17.627Z,51.94
2023-05-10T10:53:44.750Z,51.96
2023-05-10T10:56:16.120Z,52.00
2023-05-10T10:58:54.711Z,51.96
2023-05-10T11:01:21.641Z,51.98
2023-05-10T11:04:03.684Z,52.10
2023-05-10T11:06:34.690Z,52.07
2023-05-10T11:09:08.222Z,52.03
2023-05-10T11:11:36.158Z,51.93
2023-05-10T11:14:08.036Z,51.96
2023-05-10T11:16:45.076Z,52.07
2023-05-10T11:19:13.538Z,52.05
2023-05-10T11:21:47.950Z,51.94
2023-05-10T11:24:20.119Z,52.03
2023-05-10T11:26:47.210Z,52.02
2023-05-10T11:29:14.895Z,52.19
2023-05-10T11:31:48.617Z,52.17
2023-05-10T11:34:34.341Z,52.21
2023-05-10T11:37:01.685Z,52.28
2023-05-10T11:39:29.705Z,52.32
2023-05-10T11:41:56.371Z,52.05
2023-05-10T11:44:23.180Z,52.01
2023-05-10T11:46:50.563Z,52.00
2023-05-10T11:49:17.306Z,51.79
2023-05-10T11:51:44.654Z,51.98
2023-05-10T11:54:12.621Z,52.06
2023-05-10T11:59:26.247Z,52.20
2023-05-10T12:01:52.967Z,52.21
2023-05-10T12:04:20.128Z,52.45
2023-05-10T12:06:47.641Z,52.63
2023-05-10T12:09:15.760Z,52.21
2023-05-10T12:11:44.243Z,51.84
2023-05-10T12:14:11.668Z,52.11
2023-05-10T12:16:38.260Z,51.77
2023-05-10T12:19:05.008Z,51.99
2023-05-10T12:21:31.918Z,52.08
2023-05-10T12:24:04.040Z,52.19
2023-05-10T12:26:30.934Z,52.11
2023-05-10T12:29:13.807Z,52.37
2023-05-10T12:31:58.351Z,52.26
2023-05-10T12:34:26.221Z,52.26
2023-05-10T12:36:56.815Z,52.44
2023-05-10T12:39:23.563Z,52.17
2023-05-10T12:41:50.358Z,52.38
2023-05-10T12:44:16.998Z,52.10
2023-05-10T12:46:43.580Z,52.41
2023-05-10T12:49:10.195Z,52.41
2023-05-10T12:51:36.809Z,52.59
2023-05-10T12:54:04.022Z,52.23
2023-05-10T12:56:30.752Z,52.19
2023-05-10T12:58:57.318Z,52.13
2023-05-10T13:01:23.938Z,52.33
2023-05-10T13:03:51.516Z,52.20
2023-05-10T13:06:18.105Z,52.13
2023-05-10T13:08:44.671Z,52.10
2023-05-10T13:11:11.284Z,51.77
2023-05-10T13:13:37.854Z,51.67
2023-05-10T13:16:04.908Z,51.47
2023-05-10T13:18:31.785Z,51.58
2023-05-10T13:20:58.439Z,51.50
2023-05-10T13:23:25.053Z,51.57
2023-05-10T13:25:51.618Z,51.65
2023-05-10T13:28:18.141Z,52.07
2023-05-10T13:30:44.728Z,52.24
2023-05-10T13:33:11.380Z,52.20
2023-05-10T13:35:38.081Z,52.41
2023-05-10T13:38:04.780Z,51.71
2023-05-10T13:40:31.368Z,51.95
2023-05-10T13:42:57.952Z,51.82
2023-05-10T13:45:24.507Z,52.00
2023-05-10T13:47:51.140Z,51.85
2023-05-10T13:50:18.010Z,51.61
2023-05-10T13:52:44.592Z,51.57
2023-05-10T13:55:13.412Z,51.66
2023-05-10T13:57:40.066Z,51.37
2023-05-10T14:00:07.381Z,51.45
2023-05-10T14:02:34.028Z,51.39
2023-05-10T14:05:01.166Z,51.56
2023-05-10T14:07:27.722Z,51.28
2023-05-10T14:09:54.249Z,51.64
2023-05-10T14:12:20.771Z,51.72
2023-05-10T14:14:47.361Z,51.72
2023-05-10T14:17:13.936Z,51.68
2023-05-10T14:19:40.521Z,51.80
2023-05-10T14:22:07.298Z,51.80
2023-05-10T14:24:33.959Z,51.95
2023-05-10T14:27:01.320Z,51.79
2023-05-10T14:29:28.310Z,51.79
2023-05-10T14:31:54.919Z,51.70
2023-05-10T14:34:21.729Z,51.47
2023-05-10T14:36:48.397Z,51.76
2023-05-10T14:39:15.001Z,51.71
2023-05-10T14:41:45.544Z,51.79
2023-05-10T14:44:12.250Z,52.07
2023-05-10T14:46:39.552Z,51.56
2023-05-10T14:49:06.378Z,51.47
2023-05-10T14:51:33.048Z,51.60
2023-05-10T14:53:59.792Z,51.60
2023-05-10T14:56:27.109Z,51.60
2023-05-10T14:58:53.743Z,51.59
2023-05-10T15:01:20.907Z,51.88
2023-05-10T15:03:47.879Z,51.86
2023-05-10T15:06:16.982Z,51.81
2023-05-10T15:08:43.597Z,51.97
2023-05-10T15:11:10.318Z,52.20
2023-05-10T15:13:36.957Z,52.25
2023-05-10T15:16:03.657Z,51.99
2023-05-10T15:18:30.357Z,51.97
2023-05-10T15:20:56.895Z,52.02
2023-05-10T15:23:23.887Z,52.03
2023-05-10T15:25:53.232Z,52.07
2023-05-10T15:28:19.754Z,52.24
2023-05-10T15:30:46.290Z,52.27
2023-05-10T15:33:12.808Z,52.17
2023-05-10T15:35:40.541Z,52.13
2023-05-10T15:38:07.106Z,52.06
2023-05-10T15:40:33.671Z,51.88
2023-05-10T15:43:00.203Z,52.15
2023-05-10T15:45:27.525Z,52.54
2023-05-10T15:47:54.210Z,52.44
2023-05-10T15:50:20.779Z,52.09
2023-05-10T15:52:47.550Z,52.11
2023-05-10T15:55:14.468Z,51.78
2023-05-10T15:57:42.506Z,51.60
2023-05-10T16:00:13.565Z,51.49
2023-05-10T16:02:41.446Z,51.64
2023-05-10T16:05:09.599Z,51.44
2023-05-10T16:07:36.183Z,51.32
2023-05-10T16:10:04.206Z,51.25
2023-05-10T16:12:31.479Z,50.88
2023-05-10T16:14:58.197Z,51.07
2023-05-10T16:17:24.947Z,50.98
2023-05-10T16:19:51.582Z,51.08
2023-05-10T16:22:18.192Z,52.31
2023-05-10T16:24:44.870Z,52.63
2023-05-10T16:27:13.236Z,52.75
2023-05-10T16:29:39.859Z,52.64
2023-05-10T16:32:07.074Z,52.90
2023-05-10T16:34:33.610Z,52.78
2023-05-10T16:37:00.205Z,53.24
2023-05-10T16:39:26.781Z,53.07
2023-05-10T16:41:53.321Z,53.26
2023-05-10T16:44:20.844Z,53.16
2023-05-10T16:46:48.821Z,53.12
2023-05-10T16:49:15.537Z,53.50
2023-05-10T16:51:42.295Z,53.25
2023-05-10T16:54:08.835Z,53.13
2023-05-10T16:56:35.361Z,53.46
2023-05-10T16:59:01.961Z,53.19
2023-05-10T17:01:28.792Z,53.04
2023-05-10T17:03:55.679Z,53.04
2023-05-10T17:06:22.282Z,53.33
2023-05-10T17:08:48.847Z,53.52
2023-05-10T17:11:15.508Z,53.15
2023-05-10T17:13:42.106Z,53.20
2023-05-10T17:16:08.826Z,53.55
2023-05-10T17:18:35.487Z,53.26
2023-05-10T17:21:02.121Z,53.38
2023-05-10T17:23:29.186Z,53.34
2023-05-10T17:25:56.012Z,53.22
2023-05-10T17:28:22.568Z,53.07
2023-05-10T17:30:55.810Z,53.42
2023-05-10T17:33:22.389Z,53.30
2023-05-10T17:35:49.091Z,53.45
2023-05-10T17:38:15.703Z,53.48
2023-05-10T17:40:42.562Z,53.20
2023-05-10T17:43:09.169Z,53.09
2023-05-10T17:45:36.287Z,53.15
2023-05-10T17:48:03.412Z,53.26
2023-05-10T17:50:30.030Z,53.08
2023-05-10T17:52:56.599Z,52.50
2023-05-10T17:55:23.151Z,52.38
2023-05-10T17:57:51.819Z,52.30
2023-05-10T18:00:18.850Z,52.33
2023-05-10T18:02:45.597Z,52.60
2023-05-10T18:05:12.252Z,52.52
2023-05-10T18:07:39.967Z,52.87
2023-05-10T18:10:07.167Z,52.92
2023-05-10T18:12:33.818Z,52.65
2023-05-10T18:15:00.647Z,52.11
2023-05-10T18:17:27.815Z,52.37
2023-05-10T18:19:54.401Z,52.21
2023-05-10T18:22:21.276Z,51.90
2023-05-10T18:24:48.060Z,52.10
2023-05-10T18:27:14.739Z,52.08
2023-05-10T18:29:41.307Z,51.72
2023-05-10T18:32:07.922Z,52.30
2023-05-10T18:34:34.491Z,51.80
2023-05-10T18:37:03.661Z,51.84
2023-05-10T18:39:30.247Z,51.49
2023-05-10T18:41:56.874Z,51.92
2023-05-10T18:44:26.333Z,51.56
2023-05-10T18:46:54.208Z,51.47
2023-05-10T18:49:20.828Z,51.79
2023-05-10T18:51:47.416Z,51.74
2023-05-10T18:54:14.955Z,51.74
2023-05-10T18:56:47.420Z,51.96
2023-05-10T18:59:14.347Z,51.72
2023-05-10T19:01:41.770Z,51.84
2023-05-10T19:04:11.301Z,51.69
2023-05-10T19:06:38.035Z,51.80
2023-05-10T19:09:04.805Z,51.63
2023-05-10T19:11:34.031Z,51.98
2023-05-10T19:14:01.650Z,51.76
2023-05-10T19:16:29.786Z,52.09
2023-05-10T19:18:56.965Z,52.38
2023-05-10T19:21:24.723Z,52.40
2023-05-10T19:23:52.111Z,52.53
2023-05-10T19:26:18.683Z,52.44
2023-05-10T19:28:45.618Z,52.54
2023-05-10T19:31:12.253Z,52.43
2023-05-10T19:33:39.055Z,52.57
2023-05-10T19:36:05.901Z,52.43
2023-05-10T19:38:33.658Z,52.45
2023-05-10T19:41:00.494Z,52.23
2023-05-10T19:43:33.331Z,52.37
2023-05-10T19:46:04.141Z,52.24
2023-05-10T19:48:31.281Z,52.23
2023-05-10T19:51:02.694Z,52.48
2023-05-10T19:53:29.846Z,52.70
2023-05-10T19:55:56.567Z,52.57
2023-05-10T19:58:23.596Z,52.46
2023-05-10T20:00:50.663Z,52.42
2023-05-10T20:03:17.286Z,52.78
2023-05-10T20:05:43.847Z,52.67
2023-05-10T20:08:10.621Z,52.99
2023-05-10T20:10:37.179Z,52.74
2023-05-10T20:13:03.712Z,52.59
2023-05-10T20:15:30.374Z,52.76
2023-05-10T20:17:57.052Z,52.53
2023-05-10T20:20:23.760Z,52.63
2023-05-10T20:22:50.863Z,52.60
2023-05-10T20:25:18.614Z,52.67
2023-05-10T20:27:45.339Z,52.57
2023-05-10T20:30:12.248Z,52.79
2023-05-10T20:32:39.323Z,52.68
2023-05-10T20:35:07.201Z,52.60
2023-05-10T20:37:34.014Z,52.72
2023-05-10T20:40:00.910Z,52.62
2023-05-10T20:42:27.504Z,52.62
2023-05-10T20:44:54.439Z,52.58
2023-05-10T20:47:23.320Z,52.68
2023-05-10T20:49:49.989Z,52.43
2023-05-10T20:52:16.868Z,52.52
2023-05-10T20:54:43.389Z,52.47
2023-05-10T20:57:12.626Z,52.53
2023-05-10T20:59:39.269Z,52.71
2023-05-10T21:02:05.946Z,52.71
2023-05-10T21:04:32.690Z,52.67
2023-05-10T21:06:59.347Z,52.62
2023-05-10T21:09:25.916Z,52.65
2023-05-10T21:11:52.573Z,52.63
2023-05-10T21:14:19.283Z,52.71
2023-05-10T21:16:45.902Z,52.55
2023-05-10T21:19:12.499Z,52.69
2023-05-10T21:21:39.052Z,52.49
2023-05-10T21:24:05.969Z,52.58
2023-05-10T21:26:32.581Z,52.77
2023-05-10T21:28:59.389Z,52.55
2023-05-10T21:31:26.122Z,52.72
2023-05-10T21:33:52.763Z,52.65
2023-05-10T21:36:19.342Z,52.59
2023-05-10T21:38:46.667Z,52.72
2023-05-10T21:41:13.257Z,52.84
2023-05-10T21:43:39.854Z,52.52
2023-05-10T21:46:07.427Z,52.59
2023-05-10T21:48:34.082Z,52.77
2023-05-10T21:51:01.688Z,52.65
2023-05-10T21:53:28.866Z,52.56
2023-05-10T21:55:56.355Z,52.58
2023-05-10T21:58:23.190Z,52.68
2023-05-10T22:00:49.873Z,52.68
2023-05-10T22:03:16.643Z,52.68
2023-05-10T22:05:43.318Z,52.69
2023-05-10T22:08:09.892Z,52.97
2023-05-10T22:10:36.499Z,52.77
2023-05-10T22:13:03.250Z,52.92
2023-05-10T22:15:31.204Z,52.94
2023-05-10T22:17:57.983Z,52.87
2023-05-10T22:20:24.548Z,52.77
2023-05-10T22:22:51.275Z,52.64
2023-05-10T22:25:18.029Z,52.82
2023-05-10T22:27:44.570Z,52.81
2023-05-10T22:30:11.562Z,52.76
2023-05-10T22:32:38.222Z,52.92
2023-05-10T22:35:05.164Z,53.00
2023-05-10T22:37:31.733Z,52.96
2023-05-10T22:39:58.242Z,52.92
2023-05-10T22:42:24.830Z,52.85
2023-05-10T22:44:51.383Z,52.77
2023-05-10T22:47:17.993Z,52.85
2023-05-10T22:49:44.521Z,52.98
2023-05-10T22:52:11.293Z,52.77
2023-05-10T22:54:37.870Z,52.93
2023-05-10T22:57:04.587Z,53.01
2023-05-10T22:59:31.443Z,52.93
2023-05-10T23:01:58.203Z,52.96
2023-05-10T23:04:24.872Z,52.99
2023-05-10T23:06:51.514Z,52.75
2023-05-10T23:09:18.266Z,52.86
2023-05-10T23:11:44.828Z,52.89
2023-05-10T23:14:11.878Z,52.86
2023-05-10T23:16:38.491Z,52.78
2023-05-10T23:19:05.280Z,52.91
2023-05-10T23:21:32.307Z,52.77
2023-05-10T23:23:59.122Z,52.82
2023-05-10T23:26:25.731Z,53.12
2023-05-10T23:28:52.364Z,53.15
2023-05-10T23:31:19.018Z,52.94
2023-05-10T23:33:45.640Z,52.86
2023-05-10T23:36:12.475Z,52.85
2023-05-10T23:38:39.443Z,52.90
2023-05-10T23:41:06.262Z,52.67
2023-05-10T23:43:32.892Z,52.91
2023-05-10T23:45:59.598Z,52.93
2023-05-10T23:48:26.293Z,52.82
2023-05-10T23:50:53.226Z,52.72
2023-05-10T23:53:19.842Z,52.99
2023-05-10T23:55:46.461Z,52.83
2023-05-10T23:58:13.117Z,52.89
